Terminal Aerodrome Forecast
Issued by NWS

Home | Current Version | Previous Version | Text Only | Print | Product List | Glossary Off
Versions: 1 2 3 4 5 6 7 8 9 10 11 12 13 14 15 16 17 18 19 20 21 22 23 24 25 26 27 28 29

000
FTUS43 KLOT 240014 AAA
TAFGYY
TAF AMD
KGYY 240014Z 2400/2424 16013G19KT P6SM VCSH BKN035 OVC045
      TEMPO 2400/2402 -SHRA BKN030
     FM240200 17013KT P6SM SCT040 OVC050
     FM240500 20012KT P6SM FEW045 BKN120 WS015/21050KT
     FM241400 21016G24KT P6SM BKN250
     FM241700 21020G30KT P6SM FEW035 SCT250
     FM242200 20013G21KT P6SM BKN040=

USA.gov is the U.S. government's official web portal to all federal, state and local government web resources and services.